Time;durP1;ratioP1;P1;durP2;ratioP2;P2;SDS_P1;SDS_P2;PMS_P1;PMS_P2;Temp;Humidity;BMP_temperature;BMP_pressure;BME280_temperature;BME280_humidity;BME280_pressure;Samples;Min_cycle;Max_cycle;Signal;HPM_P1;HPM_P2
2023/08/31 00:00:43;;;;;;;3.30;3.10;;;;;;;;;;5053034;28;20427;-65
2023/08/31 00:03:10;;;;;;;3.17;3.03;;;;;;;;;;5052893;28;20435;-65
2023/08/31 00:05:40;;;;;;;8.73;3.60;;;;;;;;;;5053006;28;20407;-65
2023/08/31 00:08:06;;;;;;;4.47;3.40;;;;;;;;;;5052942;28;20453;-65
2023/08/31 00:10:35;;;;;;;9.83;3.43;;;;;;;;;;5053044;28;20412;-65
2023/08/31 00:13:01;;;;;;;3.10;3.00;;;;;;;;;;5052757;28;20825;-65
2023/08/31 00:15:28;;;;;;;5.00;3.47;;;;;;;;;;5052813;28;20449;-65
2023/08/31 00:17:54;;;;;;;4.03;3.63;;;;;;;;;;5052581;28;20470;-65
2023/08/31 00:20:21;;;;;;;7.57;4.13;;;;;;;;;;5052740;28;20888;-65
2023/08/31 00:22:48;;;;;;;3.50;3.30;;;;;;;;;;5052570;28;20438;-65
2023/08/31 00:25:14;;;;;;;4.13;3.77;;;;;;;;;;5052643;28;20437;-65
2023/08/31 00:27:40;;;;;;;3.90;3.53;;;;;;;;;;5051418;28;20784;-65
2023/08/31 00:30:11;;;;;;;4.30;3.70;;;;;;;;;;5052551;28;20414;-65
2023/08/31 00:32:39;;;;;;;6.17;4.20;;;;;;;;;;5052694;28;20469;-65
2023/08/31 00:35:05;;;;;;;3.77;3.47;;;;;;;;;;5052577;28;20431;-65
2023/08/31 00:37:31;;;;;;;3.57;3.30;;;;;;;;;;5051552;28;21023;-65
2023/08/31 00:39:57;;;;;;;4.20;3.90;;;;;;;;;;5052480;28;20486;-65
2023/08/31 00:42:26;;;;;;;4.13;3.80;;;;;;;;;;5052453;28;20777;-65
2023/08/31 00:44:52;;;;;;;4.07;3.50;;;;;;;;;;5052437;28;20472;-65
2023/08/31 00:47:18;;;;;;;4.20;3.90;;;;;;;;;;5051917;28;20426;-65
2023/08/31 00:49:44;;;;;;;3.73;3.63;;;;;;;;;;5052282;28;20902;-65
2023/08/31 00:52:10;;;;;;;3.57;3.47;;;;;;;;;;5052433;28;20423;-65
2023/08/31 00:54:36;;;;;;;4.47;3.77;;;;;;;;;;5052214;28;20446;-65
2023/08/31 00:57:05;;;;;;;4.07;3.83;;;;;;;;;;5052315;28;20413;-65
2023/08/31 00:59:31;;;;;;;5.00;3.50;;;;;;;;;;5052155;28;20418;-65
2023/08/31 01:02:06;;;;;;;3.50;3.40;;;;;;;;;;5052174;28;20411;-65
2023/08/31 01:04:32;;;;;;;4.37;3.87;;;;;;;;;;5052509;28;20506;-65
2023/08/31 01:07:05;;;;;;;4.10;3.50;;;;;;;;;;5052319;28;20449;-65
2023/08/31 01:09:41;;;;;;;4.33;4.07;;;;;;;;;;5052331;28;20414;-65
2023/08/31 01:12:09;;;;;;;4.67;4.37;;;;;;;;;;5051742;28;20427;-65
2023/08/31 01:14:54;;;;;;;4.03;3.80;;;;;;;;;;5052153;28;20488;-65
2023/08/31 01:17:21;;;;;;;19.23;3.80;;;;;;;;;;5052069;28;20960;-65
2023/08/31 01:19:54;;;;;;;5.47;3.37;;;;;;;;;;5050679;28;20427;-65
2023/08/31 01:22:44;;;;;;;3.57;3.27;;;;;;;;;;5051976;28;20457;-65
2023/08/31 01:25:10;;;;;;;3.47;3.30;;;;;;;;;;5052042;28;20423;-65
2023/08/31 01:27:37;;;;;;;4.20;3.93;;;;;;;;;;5052056;28;20502;-65
2023/08/31 01:30:04;;;;;;;4.70;3.30;;;;;;;;;;5051691;28;20909;-65
2023/08/31 01:32:30;;;;;;;5.30;4.10;;;;;;;;;;5052081;28;20421;-65
2023/08/31 01:35:01;;;;;;;4.17;3.90;;;;;;;;;;5051937;28;20771;-65
2023/08/31 01:37:38;;;;;;;3.87;3.57;;;;;;;;;;5052504;28;20838;-65
2023/08/31 01:40:14;;;;;;;5.07;4.70;;;;;;;;;;5051806;28;20407;-65
2023/08/31 01:42:41;;;;;;;4.30;3.67;;;;;;;;;;5051880;28;20407;-65
2023/08/31 01:45:08;;;;;;;5.63;4.10;;;;;;;;;;5051873;28;20479;-65
2023/08/31 01:47:34;;;;;;;4.90;4.30;;;;;;;;;;5053061;28;20905;-65
2023/08/31 01:50:00;;;;;;;6.10;4.17;;;;;;;;;;5054340;28;20422;-65
2023/08/31 01:52:28;;;;;;;3.90;3.77;;;;;;;;;;5055469;28;20418;-65
2023/08/31 01:54:54;;;;;;;3.97;3.77;;;;;;;;;;5055384;28;20438;-65
2023/08/31 01:57:20;;;;;;;3.93;3.70;;;;;;;;;;5055245;28;20465;-65
2023/08/31 01:59:49;;;;;;;5.60;3.40;;;;;;;;;;5055493;28;20769;-65
2023/08/31 02:02:14;;;;;;;3.93;3.57;;;;;;;;;;5055252;28;20440;-65
2023/08/31 02:04:40;;;;;;;5.60;3.77;;;;;;;;;;5055267;28;20433;-65
2023/08/31 02:07:09;;;;;;;3.80;3.60;;;;;;;;;;5055163;28;20777;-65
2023/08/31 02:09:35;;;;;;;3.53;3.33;;;;;;;;;;5055094;28;20487;-65
2023/08/31 02:12:01;;;;;;;4.03;3.10;;;;;;;;;;5055099;28;20419;-65
2023/08/31 02:14:29;;;;;;;7.43;2.90;;;;;;;;;;5055218;28;20460;-65
2023/08/31 02:16:55;;;;;;;3.40;3.10;;;;;;;;;;5055104;28;20402;-65
2023/08/31 02:19:21;;;;;;;2.90;2.80;;;;;;;;;;5054890;28;20835;-65
2023/08/31 02:21:50;;;;;;;4.50;3.00;;;;;;;;;;5055051;28;20501;-65
2023/08/31 02:24:18;;;;;;;2.80;2.70;;;;;;;;;;5054848;28;20937;-65
2023/08/31 02:26:44;;;;;;;3.00;2.80;;;;;;;;;;5054703;28;20423;-65
2023/08/31 02:29:10;;;;;;;2.73;2.43;;;;;;;;;;5054682;28;20458;-65
2023/08/31 02:31:38;;;;;;;2.33;2.23;;;;;;;;;;5054704;28;20421;-65
2023/08/31 02:34:04;;;;;;;4.33;2.67;;;;;;;;;;5054695;28;20439;-65
2023/08/31 02:36:30;;;;;;;2.77;2.60;;;;;;;;;;5054717;28;20520;-65
2023/08/31 02:38:57;;;;;;;6.30;2.70;;;;;;;;;;5054520;28;20461;-65
2023/08/31 02:41:23;;;;;;;2.67;2.57;;;;;;;;;;5054399;28;20410;-65
2023/08/31 02:43:52;;;;;;;3.30;2.47;;;;;;;;;;5054308;28;20465;-65
2023/08/31 02:46:18;;;;;;;4.70;3.30;;;;;;;;;;5054546;28;20481;-65
2023/08/31 02:48:44;;;;;;;6.10;2.17;;;;;;;;;;5054433;28;20448;-65
2023/08/31 02:51:10;;;;;;;2.97;2.77;;;;;;;;;;5054437;28;20422;-65
2023/08/31 02:53:39;;;;;;;2.13;1.90;;;;;;;;;;5054346;28;20426;-65
2023/08/31 02:56:05;;;;;;;3.03;2.83;;;;;;;;;;5054187;28;20422;-65
2023/08/31 02:58:31;;;;;;;2.40;2.20;;;;;;;;;;5052790;28;20991;-65
2023/08/31 03:01:06;;;;;;;2.10;2.00;;;;;;;;;;5053834;28;20987;-65
2023/08/31 03:03:35;;;;;;;2.00;1.90;;;;;;;;;;5054177;28;20412;-65
2023/08/31 03:06:01;;;;;;;5.57;2.27;;;;;;;;;;5054121;28;20406;-65
2023/08/31 03:08:27;;;;;;;2.60;2.30;;;;;;;;;;5053937;28;20500;-65
2023/08/31 03:10:53;;;;;;;2.77;2.57;;;;;;;;;;5054000;28;20924;-65
2023/08/31 03:13:19;;;;;;;2.50;2.30;;;;;;;;;;5053827;28;20424;-65
2023/08/31 03:15:45;;;;;;;2.43;2.07;;;;;;;;;;5053944;28;20917;-65
2023/08/31 03:18:11;;;;;;;2.80;2.43;;;;;;;;;;5053742;28;20828;-65
2023/08/31 03:20:37;;;;;;;2.33;2.10;;;;;;;;;;5053827;28;20464;-65
2023/08/31 03:23:03;;;;;;;2.00;1.90;;;;;;;;;;5053878;28;20414;-65
2023/08/31 03:25:31;;;;;;;2.10;1.57;;;;;;;;;;5053608;28;20465;-65
2023/08/31 03:27:57;;;;;;;2.53;2.33;;;;;;;;;;5053808;28;20441;-65
2023/08/31 03:30:23;;;;;;;4.33;2.37;;;;;;;;;;5053622;28;20446;-65
2023/08/31 03:32:49;;;;;;;2.60;2.40;;;;;;;;;;5053561;28;20467;-65
2023/08/31 03:35:15;;;;;;;3.80;2.30;;;;;;;;;;5053363;28;20449;-65
2023/08/31 03:37:41;;;;;;;2.33;2.23;;;;;;;;;;5053691;28;20465;-65
2023/08/31 03:40:07;;;;;;;2.93;2.63;;;;;;;;;;5053536;28;20769;-65
2023/08/31 03:42:36;;;;;;;4.70;2.40;;;;;;;;;;5053411;28;20484;-65
2023/08/31 03:45:03;;;;;;;3.73;3.00;;;;;;;;;;5053373;28;20406;-65
2023/08/31 03:47:29;;;;;;;2.17;1.97;;;;;;;;;;5053350;28;20410;-65
2023/08/31 03:49:55;;;;;;;2.30;2.13;;;;;;;;;;5053171;28;20460;-65
2023/08/31 03:52:24;;;;;;;2.87;2.47;;;;;;;;;;5053106;28;20894;-65
2023/08/31 03:54:50;;;;;;;2.50;2.40;;;;;;;;;;5053169;28;20412;-65
2023/08/31 03:57:16;;;;;;;4.73;2.10;;;;;;;;;;5053074;28;20502;-65
2023/08/31 03:59:42;;;;;;;4.83;2.27;;;;;;;;;;5053125;28;20457;-65
2023/08/31 04:02:08;;;;;;;3.10;2.57;;;;;;;;;;5053136;28;20896;-65
2023/08/31 04:04:34;;;;;;;4.00;2.70;;;;;;;;;;5052942;28;20425;-65
2023/08/31 04:07:00;;;;;;;2.93;2.73;;;;;;;;;;5052996;28;20418;-65
2023/08/31 04:09:26;;;;;;;3.27;2.60;;;;;;;;;;5052795;28;20615;-65
2023/08/31 04:11:52;;;;;;;3.07;2.40;;;;;;;;;;5052005;28;20498;-65
2023/08/31 04:14:18;;;;;;;3.60;2.40;;;;;;;;;;5052684;28;20452;-65
2023/08/31 04:16:47;;;;;;;2.30;2.20;;;;;;;;;;5052714;28;20513;-65
2023/08/31 04:19:13;;;;;;;3.27;2.57;;;;;;;;;;5052704;28;20470;-65
2023/08/31 04:21:38;;;;;;;5.13;2.47;;;;;;;;;;5052718;28;20947;-65
2023/08/31 04:24:05;;;;;;;2.80;2.27;;;;;;;;;;5052636;28;20415;-65
2023/08/31 04:26:31;;;;;;;2.90;2.70;;;;;;;;;;5052586;28;21003;-65
2023/08/31 04:28:57;;;;;;;9.63;2.70;;;;;;;;;;5052677;28;20899;-65
2023/08/31 04:31:23;;;;;;;2.40;2.20;;;;;;;;;;5052606;28;20413;-65
2023/08/31 04:33:53;;;;;;;2.40;2.33;;;;;;;;;;5052184;28;20917;-65
2023/08/31 04:36:21;;;;;;;3.83;2.73;;;;;;;;;;5052586;28;20440;-65
2023/08/31 04:38:48;;;;;;;2.73;2.60;;;;;;;;;;5052323;28;20458;-65
2023/08/31 04:41:14;;;;;;;4.63;2.83;;;;;;;;;;5052375;28;20535;-65
2023/08/31 04:43:40;;;;;;;8.10;5.73;;;;;;;;;;5052515;28;20399;-65
2023/08/31 04:46:09;;;;;;;2.80;2.70;;;;;;;;;;5051242;28;20457;-65
2023/08/31 04:48:36;;;;;;;4.20;2.87;;;;;;;;;;5052524;28;20421;-65
2023/08/31 04:51:03;;;;;;;6.40;3.30;;;;;;;;;;5052491;28;20478;-65
2023/08/31 04:53:32;;;;;;;11.30;3.37;;;;;;;;;;5052168;28;20432;-65
2023/08/31 04:55:58;;;;;;;2.73;2.50;;;;;;;;;;5052436;28;20529;-65
2023/08/31 04:58:24;;;;;;;3.73;2.93;;;;;;;;;;5052384;28;20469;-65
2023/08/31 05:00:53;;;;;;;9.20;3.10;;;;;;;;;;5052191;28;20796;-65
2023/08/31 05:03:19;;;;;;;2.73;2.50;;;;;;;;;;5052349;28;20406;-65
2023/08/31 05:05:47;;;;;;;6.43;3.70;;;;;;;;;;5052123;28;20445;-65
2023/08/31 05:08:15;;;;;;;13.03;3.30;;;;;;;;;;5052112;28;20500;-65
2023/08/31 05:10:41;;;;;;;4.40;2.90;;;;;;;;;;5052057;28;20456;-65
2023/08/31 05:13:07;;;;;;;3.37;3.00;;;;;;;;;;5052258;28;20489;-65
2023/08/31 05:15:33;;;;;;;4.83;3.33;;;;;;;;;;5052312;28;20431;-65
2023/08/31 05:18:02;;;;;;;4.90;3.10;;;;;;;;;;5052236;28;20457;-65
2023/08/31 05:20:29;;;;;;;3.33;3.03;;;;;;;;;;5052283;28;20413;-65
2023/08/31 05:22:55;;;;;;;3.60;2.93;;;;;;;;;;5053675;28;20440;-65
2023/08/31 05:25:23;;;;;;;2.77;2.57;;;;;;;;;;5056035;28;20482;-65
2023/08/31 05:27:52;;;;;;;3.40;3.07;;;;;;;;;;5054572;28;20442;-63
2023/08/31 05:30:18;;;;;;;4.27;2.90;;;;;;;;;;5055923;28;20485;-65
2023/08/31 05:32:46;;;;;;;4.60;3.50;;;;;;;;;;5055831;28;20465;-65
2023/08/31 05:35:14;;;;;;;10.73;3.70;;;;;;;;;;5055861;28;20952;-65
2023/08/31 05:37:41;;;;;;;3.93;3.53;;;;;;;;;;5055793;28;20473;-65
2023/08/31 05:40:11;;;;;;;3.47;3.17;;;;;;;;;;5055710;28;20797;-65
2023/08/31 05:42:40;;;;;;;4.13;3.10;;;;;;;;;;5055790;28;20468;-65
2023/08/31 05:45:06;;;;;;;3.30;3.10;;;;;;;;;;5055749;28;20784;-65
2023/08/31 05:47:32;;;;;;;3.00;2.90;;;;;;;;;;5055349;28;20464;-65
2023/08/31 05:49:58;;;;;;;5.70;2.93;;;;;;;;;;5054966;28;20437;-64
2023/08/31 05:52:27;;;;;;;2.70;2.60;;;;;;;;;;5055032;28;20432;-65
2023/08/31 05:54:53;;;;;;;2.90;2.80;;;;;;;;;;5055289;28;20896;-65
2023/08/31 05:57:21;;;;;;;2.80;2.70;;;;;;;;;;5055209;28;20430;-64
2023/08/31 05:59:48;;;;;;;3.83;3.30;;;;;;;;;;5055003;28;20426;-64
2023/08/31 06:02:14;;;;;;;3.57;3.40;;;;;;;;;;5055059;28;20908;-64
2023/08/31 06:04:42;;;;;;;3.73;2.90;;;;;;;;;;5055051;28;20906;-64
2023/08/31 06:07:13;;;;;;;4.20;3.50;;;;;;;;;;5053810;28;20425;-64
2023/08/31 06:09:39;;;;;;;3.80;3.50;;;;;;;;;;5054686;28;20449;-64
2023/08/31 06:12:06;;;;;;;5.23;3.40;;;;;;;;;;5054846;28;20449;-64
2023/08/31 06:14:34;;;;;;;4.37;3.00;;;;;;;;;;5054964;28;20809;-64
2023/08/31 06:17:00;;;;;;;3.53;3.33;;;;;;;;;;5055319;28;20470;-64
2023/08/31 06:19:26;;;;;;;3.17;2.97;;;;;;;;;;5054573;28;20512;-64
2023/08/31 06:21:52;;;;;;;4.63;3.20;;;;;;;;;;5054454;28;20442;-64
2023/08/31 06:24:21;;;;;;;4.47;3.10;;;;;;;;;;5054582;28;20474;-64
2023/08/31 06:26:47;;;;;;;4.23;3.27;;;;;;;;;;5054611;28;20782;-64
2023/08/31 06:29:13;;;;;;;5.70;3.20;;;;;;;;;;5054358;28;20414;-64
2023/08/31 06:31:39;;;;;;;15.10;3.57;;;;;;;;;;5054681;28;20566;-64
2023/08/31 06:34:05;;;;;;;3.37;3.23;;;;;;;;;;5052273;28;20961;-64
2023/08/31 06:36:31;;;;;;;4.73;3.00;;;;;;;;;;5054477;28;20426;-64
2023/08/31 06:38:57;;;;;;;5.30;3.13;;;;;;;;;;5053659;28;20466;-65
2023/08/31 06:41:23;;;;;;;4.10;2.73;;;;;;;;;;5054681;28;20430;-64
2023/08/31 06:43:48;;;;;;;3.23;2.93;;;;;;;;;;5054292;28;20413;-64
2023/08/31 06:46:14;;;;;;;6.53;3.17;;;;;;;;;;5053666;28;20768;-67
2023/08/31 06:48:40;;;;;;;2.83;2.70;;;;;;;;;;5018636;22;20505;-64
2023/08/31 06:51:06;;;;;;;2.93;2.70;;;;;;;;;;4994033;28;20429;-64
2023/08/31 06:53:35;;;;;;;2.47;2.47;;;;;;;;;;4994820;28;20417;-64
2023/08/31 06:56:03;;;;;;;4.40;2.70;;;;;;;;;;4995222;28;20438;-64
2023/08/31 06:58:30;;;;;;;8.43;3.07;;;;;;;;;;4994747;28;20524;-64
2023/08/31 07:00:55;;;;;;;4.00;2.90;;;;;;;;;;4994645;28;20422;-64
2023/08/31 07:03:24;;;;;;;3.37;2.77;;;;;;;;;;4994812;28;20489;-64
2023/08/31 07:05:50;;;;;;;3.27;2.97;;;;;;;;;;4994621;28;20444;-64
2023/08/31 07:08:16;;;;;;;2.80;2.70;;;;;;;;;;4994536;28;20489;-65
2023/08/31 07:10:42;;;;;;;3.10;2.90;;;;;;;;;;4993315;28;20876;-64
2023/08/31 07:13:08;;;;;;;3.10;2.80;;;;;;;;;;4994420;28;20430;-65
2023/08/31 07:15:34;;;;;;;2.70;2.60;;;;;;;;;;4994602;28;20438;-64
2023/08/31 07:18:00;;;;;;;2.40;2.20;;;;;;;;;;4992932;28;20552;-64
2023/08/31 07:20:26;;;;;;;3.23;3.03;;;;;;;;;;4994750;28;20415;-64
2023/08/31 07:22:52;;;;;;;7.13;2.80;;;;;;;;;;4993911;28;20820;-64
2023/08/31 07:25:18;;;;;;;2.63;2.53;;;;;;;;;;4993996;28;20503;-64
2023/08/31 07:27:44;;;;;;;2.50;2.40;;;;;;;;;;4993220;28;20456;-64
2023/08/31 07:30:10;;;;;;;3.73;2.60;;;;;;;;;;4994455;28;20418;-64
2023/08/31 07:32:39;;;;;;;2.90;2.70;;;;;;;;;;4993025;28;20431;-64
2023/08/31 07:35:07;;;;;;;2.50;2.30;;;;;;;;;;4993785;28;20922;-64
2023/08/31 07:37:34;;;;;;;5.13;2.80;;;;;;;;;;4994176;28;20537;-64
2023/08/31 07:40:03;;;;;;;4.23;2.57;;;;;;;;;;4993789;28;20494;-64
2023/08/31 07:42:29;;;;;;;2.60;2.40;;;;;;;;;;4993992;28;20964;-64
2023/08/31 07:44:55;;;;;;;5.93;2.83;;;;;;;;;;4993704;28;20422;-64
2023/08/31 07:47:21;;;;;;;2.53;2.40;;;;;;;;;;4993756;28;20465;-65
2023/08/31 07:49:47;;;;;;;3.60;2.43;;;;;;;;;;4993254;28;20414;-64
2023/08/31 07:52:13;;;;;;;3.47;3.10;;;;;;;;;;4993832;28;20859;-64
2023/08/31 07:54:39;;;;;;;3.50;2.97;;;;;;;;;;4993543;28;20591;-64
2023/08/31 07:57:07;;;;;;;3.83;2.70;;;;;;;;;;4992510;28;20876;-64
2023/08/31 07:59:33;;;;;;;2.90;2.70;;;;;;;;;;4993324;28;20477;-64
2023/08/31 08:01:59;;;;;;;4.03;2.13;;;;;;;;;;4993128;28;20414;-64
2023/08/31 08:04:26;;;;;;;2.43;2.23;;;;;;;;;;4993967;28;20414;-64
2023/08/31 08:06:52;;;;;;;7.50;3.20;;;;;;;;;;4993304;28;20411;-64
2023/08/31 08:09:18;;;;;;;3.13;2.70;;;;;;;;;;4993146;28;20423;-64
2023/08/31 08:11:44;;;;;;;4.20;2.40;;;;;;;;;;4992951;28;20428;-64
2023/08/31 08:14:10;;;;;;;5.63;2.30;;;;;;;;;;4993417;28;20426;-64
2023/08/31 08:16:36;;;;;;;2.70;2.37;;;;;;;;;;4993408;28;20455;-64
2023/08/31 08:19:03;;;;;;;2.17;2.07;;;;;;;;;;4993263;28;20926;-64
2023/08/31 08:21:29;;;;;;;2.47;2.27;;;;;;;;;;4993005;28;20413;-64
2023/08/31 08:23:57;;;;;;;16.63;4.63;;;;;;;;;;4993761;28;20956;-64
2023/08/31 08:26:25;;;;;;;13.37;5.33;;;;;;;;;;4993796;28;20456;-65
2023/08/31 08:28:51;;;;;;;8.03;2.70;;;;;;;;;;4993746;28;20923;-64
2023/08/31 08:31:17;;;;;;;4.33;2.50;;;;;;;;;;4993664;28;20449;-65
2023/08/31 08:33:43;;;;;;;2.60;2.40;;;;;;;;;;4993089;28;20452;-65
2023/08/31 08:36:11;;;;;;;4.53;2.10;;;;;;;;;;4993115;28;20437;-64
2023/08/31 08:38:37;;;;;;;3.47;1.97;;;;;;;;;;4993369;28;20460;-64
2023/08/31 08:41:07;;;;;;;2.33;2.23;;;;;;;;;;4993168;28;20411;-65
2023/08/31 08:43:33;;;;;;;2.33;2.00;;;;;;;;;;4992777;28;20482;-64
2023/08/31 08:46:04;;;;;;;3.90;2.00;;;;;;;;;;4993081;28;20482;-65
2023/08/31 08:48:30;;;;;;;6.63;2.27;;;;;;;;;;4992992;28;20453;-65
2023/08/31 08:50:56;;;;;;;2.20;2.10;;;;;;;;;;4993226;28;20477;-64
2023/08/31 08:53:22;;;;;;;4.00;2.23;;;;;;;;;;4992680;28;20469;-65
2023/08/31 08:55:48;;;;;;;4.17;2.43;;;;;;;;;;4993326;28;20421;-64
2023/08/31 08:58:14;;;;;;;2.50;2.30;;;;;;;;;;4995139;28;20567;-65
2023/08/31 09:00:41;;;;;;;1.70;1.60;;;;;;;;;;4997114;28;20945;-64
2023/08/31 09:03:07;;;;;;;3.03;1.80;;;;;;;;;;4995873;28;20489;-64
2023/08/31 09:05:33;;;;;;;2.63;2.37;;;;;;;;;;4997019;28;20507;-65
2023/08/31 09:08:02;;;;;;;7.20;2.67;;;;;;;;;;4996671;28;20412;-64
2023/08/31 09:10:38;;;;;;;4.10;2.80;;;;;;;;;;4996322;28;20931;-65
2023/08/31 09:13:12;;;;;;;3.53;2.60;;;;;;;;;;4996720;28;20770;-65
2023/08/31 09:15:38;;;;;;;3.23;2.60;;;;;;;;;;4996872;28;20771;-65
2023/08/31 09:18:04;;;;;;;3.90;2.60;;;;;;;;;;4996453;28;20472;-64
2023/08/31 09:20:30;;;;;;;4.50;2.80;;;;;;;;;;4996181;28;20507;-65
2023/08/31 09:22:56;;;;;;;3.47;3.17;;;;;;;;;;4996565;28;20796;-65
2023/08/31 09:25:22;;;;;;;2.53;2.33;;;;;;;;;;4996374;28;20406;-64
2023/08/31 09:27:49;;;;;;;4.83;2.40;;;;;;;;;;4996491;28;20436;-64
2023/08/31 09:30:15;;;;;;;11.83;3.00;;;;;;;;;;4995084;28;20439;-65
2023/08/31 09:32:43;;;;;;;6.90;2.43;;;;;;;;;;4996073;28;20882;-64
2023/08/31 09:35:09;;;;;;;6.50;2.60;;;;;;;;;;4995872;28;20980;-65
2023/08/31 09:37:35;;;;;;;10.50;2.97;;;;;;;;;;4996224;28;20467;-65
2023/08/31 09:40:03;;;;;;;3.40;3.10;;;;;;;;;;4996570;28;20514;-65
2023/08/31 09:42:40;;;;;;;5.10;2.33;;;;;;;;;;4996329;28;20493;-65
2023/08/31 09:45:07;;;;;;;3.43;2.50;;;;;;;;;;4995990;28;20450;-65
2023/08/31 09:47:33;;;;;;;5.53;2.60;;;;;;;;;;4996119;28;20439;-65
2023/08/31 09:49:59;;;;;;;6.77;2.87;;;;;;;;;;4995818;28;20425;-65
2023/08/31 09:52:27;;;;;;;3.77;3.43;;;;;;;;;;4994966;28;20448;-65
2023/08/31 09:54:53;;;;;;;7.07;2.63;;;;;;;;;;4995872;28;20474;-64
2023/08/31 09:57:20;;;;;;;3.33;2.10;;;;;;;;;;4995795;28;20493;-65
2023/08/31 09:59:49;;;;;;;5.33;2.60;;;;;;;;;;4994707;28;20836;-64
2023/08/31 10:02:16;;;;;;;7.53;2.10;;;;;;;;;;4995872;28;20439;-65
2023/08/31 10:04:43;;;;;;;3.07;2.33;;;;;;;;;;4995998;28;20466;-65
2023/08/31 10:07:09;;;;;;;2.80;2.17;;;;;;;;;;4995870;28;20423;-64
2023/08/31 10:09:36;;;;;;;3.00;2.10;;;;;;;;;;4996027;28;20425;-65
2023/08/31 10:12:03;;;;;;;4.10;2.07;;;;;;;;;;4995668;28;20892;-65
2023/08/31 10:14:30;;;;;;;6.37;2.30;;;;;;;;;;4994096;28;20435;-65
2023/08/31 10:16:58;;;;;;;4.43;1.80;;;;;;;;;;4995906;28;20798;-65
2023/08/31 10:19:26;;;;;;;4.20;2.33;;;;;;;;;;4995304;28;20500;-65
2023/08/31 10:21:52;;;;;;;2.13;2.00;;;;;;;;;;4995544;28;20421;-64
2023/08/31 10:24:18;;;;;;;5.17;2.70;;;;;;;;;;4995566;28;20487;-65
2023/08/31 10:26:47;;;;;;;4.53;2.30;;;;;;;;;;4995583;28;20427;-64
2023/08/31 10:29:27;;;;;;;5.80;3.40;;;;;;;;;;4995459;28;20428;-65
2023/08/31 10:31:53;;;;;;;2.73;2.23;;;;;;;;;;4995076;28;20468;-65
2023/08/31 10:34:34;;;;;;;2.10;2.03;;;;;;;;;;4995171;28;20428;-65
2023/08/31 10:37:03;;;;;;;5.60;2.70;;;;;;;;;;4995378;28;20910;-65
2023/08/31 10:39:38;;;;;;;4.00;2.67;;;;;;;;;;4995113;28;20476;-64
2023/08/31 10:42:04;;;;;;;4.97;2.83;;;;;;;;;;4995030;28;20429;-65
2023/08/31 10:44:33;;;;;;;3.47;1.83;;;;;;;;;;4993839;28;20423;-65
2023/08/31 10:47:06;;;;;;;2.90;1.70;;;;;;;;;;4995315;28;20793;-65
2023/08/31 10:49:32;;;;;;;3.23;2.20;;;;;;;;;;4993866;28;20426;-65
2023/08/31 10:52:16;;;;;;;3.43;2.73;;;;;;;;;;4995063;28;21021;-65
2023/08/31 10:54:42;;;;;;;4.30;2.30;;;;;;;;;;4993633;28;20428;-65
2023/08/31 10:57:13;;;;;;;2.10;2.00;;;;;;;;;;4995103;28;20508;-65
2023/08/31 10:59:42;;;;;;;4.10;2.10;;;;;;;;;;4994799;28;20473;-65
2023/08/31 11:02:08;;;;;;;4.30;2.40;;;;;;;;;;4994436;28;20424;-65
2023/08/31 11:04:53;;;;;;;4.53;2.20;;;;;;;;;;4994691;28;20504;-65
2023/08/31 11:07:22;;;;;;;5.90;2.13;;;;;;;;;;4994449;28;20422;-65
2023/08/31 11:09:48;;;;;;;12.60;2.20;;;;;;;;;;4994253;28;20495;-65
2023/08/31 11:12:14;;;;;;;2.77;1.90;;;;;;;;;;4994931;28;20405;-65
2023/08/31 11:14:40;;;;;;;3.23;2.20;;;;;;;;;;4993271;28;20525;-65
2023/08/31 11:17:09;;;;;;;1.73;1.70;;;;;;;;;;4994285;28;20449;-65
2023/08/31 11:19:36;;;;;;;5.10;1.87;;;;;;;;;;4994155;28;20528;-65
2023/08/31 11:22:03;;;;;;;2.87;2.30;;;;;;;;;;4994042;28;20413;-65
2023/08/31 11:24:31;;;;;;;2.33;1.67;;;;;;;;;;4994609;28;20523;-65
2023/08/31 11:26:57;;;;;;;8.57;2.40;;;;;;;;;;4994182;28;20463;-65
2023/08/31 11:29:23;;;;;;;4.73;2.23;;;;;;;;;;4994202;28;20479;-65
2023/08/31 11:31:49;;;;;;;2.50;2.20;;;;;;;;;;4994283;28;20508;-65
2023/08/31 11:34:17;;;;;;;1.97;1.87;;;;;;;;;;4993550;28;20437;-65
2023/08/31 11:36:43;;;;;;;2.90;2.00;;;;;;;;;;4994010;28;20421;-65
2023/08/31 11:39:10;;;;;;;4.63;2.23;;;;;;;;;;4994270;28;20468;-65
2023/08/31 11:41:41;;;;;;;2.30;2.10;;;;;;;;;;4993537;28;20555;-65
2023/08/31 11:44:12;;;;;;;3.77;2.30;;;;;;;;;;4994277;28;21091;-65
2023/08/31 11:46:38;;;;;;;2.07;1.97;;;;;;;;;;4994250;28;20502;-65
2023/08/31 11:49:05;;;;;;;2.97;2.00;;;;;;;;;;4993895;28;20531;-65
2023/08/31 11:51:34;;;;;;;3.10;1.97;;;;;;;;;;4993661;28;20442;-65
2023/08/31 11:54:02;;;;;;;2.00;1.87;;;;;;;;;;4993587;28;20527;-65
2023/08/31 11:56:28;;;;;;;3.33;1.80;;;;;;;;;;4993720;28;20419;-65
2023/08/31 11:58:54;;;;;;;7.80;2.20;;;;;;;;;;4993253;28;20544;-65
2023/08/31 12:01:21;;;;;;;2.30;1.63;;;;;;;;;;4993290;28;20413;-65
2023/08/31 12:03:47;;;;;;;2.90;2.30;;;;;;;;;;4993533;28;20506;-65
2023/08/31 12:06:19;;;;;;;3.40;2.20;;;;;;;;;;4993452;28;20838;-64
2023/08/31 12:08:45;;;;;;;2.50;1.60;;;;;;;;;;4993530;28;20800;-65
2023/08/31 12:11:11;;;;;;;2.20;2.00;;;;;;;;;;4993494;28;20506;-64
2023/08/31 12:13:37;;;;;;;2.30;2.07;;;;;;;;;;4993984;28;20844;-66
2023/08/31 12:16:04;;;;;;;1.87;1.63;;;;;;;;;;4993517;28;20495;-65
2023/08/31 12:18:33;;;;;;;5.63;2.37;;;;;;;;;;4993266;28;21048;-65
2023/08/31 12:21:03;;;;;;;2.73;2.10;;;;;;;;;;4993145;28;20412;-65
2023/08/31 12:23:29;;;;;;;2.27;2.13;;;;;;;;;;4991846;28;20471;-65
2023/08/31 12:25:58;;;;;;;2.07;1.80;;;;;;;;;;4993106;28;20416;-65
2023/08/31 12:28:24;;;;;;;2.33;2.23;;;;;;;;;;4992606;28;20509;-65
2023/08/31 12:30:51;;;;;;;2.60;2.17;;;;;;;;;;4991532;28;20510;-65
2023/08/31 12:33:18;;;;;;;2.13;1.73;;;;;;;;;;4992910;28;20832;-65
2023/08/31 12:35:44;;;;;;;1.83;1.63;;;;;;;;;;4991250;28;20432;-65
2023/08/31 12:38:10;;;;;;;2.07;1.97;;;;;;;;;;4992361;28;20482;-65
2023/08/31 12:40:39;;;;;;;3.63;2.00;;;;;;;;;;4992260;28;20500;-65
2023/08/31 12:43:08;;;;;;;7.77;2.37;;;;;;;;;;4992083;28;20495;-67
2023/08/31 12:45:34;;;;;;;3.43;2.13;;;;;;;;;;4992879;28;20419;-65
2023/08/31 12:48:00;;;;;;;2.70;2.27;;;;;;;;;;4991320;28;20452;-65
2023/08/31 12:50:26;;;;;;;3.23;2.30;;;;;;;;;;4992626;28;20895;-65
2023/08/31 12:52:52;;;;;;;7.77;2.60;;;;;;;;;;4993173;28;20427;-65
2023/08/31 12:55:18;;;;;;;3.73;2.00;;;;;;;;;;4992656;28;20433;-65
2023/08/31 12:57:44;;;;;;;4.27;2.20;;;;;;;;;;4992519;28;20462;-65
2023/08/31 13:00:14;;;;;;;3.13;2.50;;;;;;;;;;4992908;28;20524;-65
2023/08/31 13:02:40;;;;;;;2.33;2.23;;;;;;;;;;4992933;28;20413;-65
2023/08/31 13:05:08;;;;;;;3.13;2.30;;;;;;;;;;4992705;28;20447;-65
2023/08/31 13:07:34;;;;;;;8.23;2.13;;;;;;;;;;4992490;28;20471;-65
2023/08/31 13:10:03;;;;;;;1.87;1.77;;;;;;;;;;4991116;28;20473;-65
2023/08/31 13:12:30;;;;;;;2.70;1.93;;;;;;;;;;4991628;28;20429;-65
2023/08/31 13:14:56;;;;;;;2.10;1.87;;;;;;;;;;4992832;28;20562;-65
2023/08/31 13:17:26;;;;;;;8.17;2.50;;;;;;;;;;4992554;28;20892;-65
2023/08/31 13:19:52;;;;;;;4.77;2.50;;;;;;;;;;4992575;28;20453;-65
2023/08/31 13:22:20;;;;;;;8.10;2.40;;;;;;;;;;4992229;28;20474;-65
2023/08/31 13:24:46;;;;;;;4.90;2.23;;;;;;;;;;4992352;28;20464;-65
2023/08/31 13:27:15;;;;;;;2.50;2.00;;;;;;;;;;4992661;28;20879;-65
2023/08/31 13:29:41;;;;;;;3.27;2.47;;;;;;;;;;4992675;28;20519;-65
2023/08/31 13:32:07;;;;;;;2.50;2.40;;;;;;;;;;4992395;28;20897;-65
2023/08/31 13:34:38;;;;;;;5.53;2.00;;;;;;;;;;4992320;28;20444;-65
2023/08/31 13:37:04;;;;;;;3.93;2.20;;;;;;;;;;4992311;28;20513;-65
2023/08/31 13:39:33;;;;;;;3.60;2.13;;;;;;;;;;4992528;28;20476;-65
2023/08/31 13:42:01;;;;;;;3.23;2.10;;;;;;;;;;4992937;28;20495;-65
2023/08/31 13:44:33;;;;;;;2.40;2.17;;;;;;;;;;4994760;28;20441;-65
2023/08/31 13:46:59;;;;;;;8.47;2.40;;;;;;;;;;4995014;28;20815;-65
2023/08/31 13:49:27;;;;;;;2.50;2.30;;;;;;;;;;4996223;28;20471;-65
2023/08/31 13:51:53;;;;;;;4.23;2.20;;;;;;;;;;4996211;28;20434;-65
2023/08/31 13:54:19;;;;;;;5.00;2.03;;;;;;;;;;4996247;28;20448;-65
2023/08/31 13:56:50;;;;;;;3.90;2.70;;;;;;;;;;4995064;28;20433;-65
2023/08/31 13:59:16;;;;;;;2.57;1.93;;;;;;;;;;4996301;28;20510;-65
2023/08/31 14:01:41;;;;;;;7.60;2.60;;;;;;;;;;4995977;28;20478;-65
2023/08/31 14:04:07;;;;;;;6.57;2.30;;;;;;;;;;4995999;28;20493;-65
2023/08/31 14:06:33;;;;;;;6.73;2.30;;;;;;;;;;4996168;28;20427;-65
2023/08/31 14:09:02;;;;;;;7.80;2.67;;;;;;;;;;4995968;28;20955;-65
2023/08/31 14:11:31;;;;;;;2.73;2.53;;;;;;;;;;4995814;28;20442;-65
2023/08/31 14:14:11;;;;;;;2.70;2.40;;;;;;;;;;4996214;28;20450;-65
2023/08/31 14:16:39;;;;;;;5.80;2.70;;;;;;;;;;4995871;28;20896;-65
2023/08/31 14:19:05;;;;;;;4.77;2.47;;;;;;;;;;4995754;28;20529;-65
2023/08/31 14:21:32;;;;;;;7.60;2.27;;;;;;;;;;4995820;28;20815;-65
2023/08/31 14:23:58;;;;;;;4.60;2.47;;;;;;;;;;4995721;28;20926;-65
2023/08/31 14:26:24;;;;;;;4.50;2.00;;;;;;;;;;4995740;28;20530;-65
2023/08/31 14:28:51;;;;;;;4.23;2.50;;;;;;;;;;4995750;28;20422;-65
2023/08/31 14:31:17;;;;;;;3.87;2.20;;;;;;;;;;4995634;28;20418;-65
2023/08/31 14:33:43;;;;;;;3.50;2.47;;;;;;;;;;4994174;28;20435;-65
2023/08/31 14:36:09;;;;;;;3.23;2.20;;;;;;;;;;4995456;28;20872;-65
2023/08/31 14:38:35;;;;;;;3.20;1.97;;;;;;;;;;4995438;28;20611;-65
2023/08/31 14:41:01;;;;;;;3.17;2.07;;;;;;;;;;4995522;28;20487;-65
2023/08/31 14:43:27;;;;;;;3.73;2.47;;;;;;;;;;4995389;28;20435;-65